createdAt,value
2022-10-01T00:00:18.283Z,24.72
2022-10-01T00:03:54.647Z,24.80
2022-10-01T00:07:11.142Z,24.86
2022-10-01T00:10:07.789Z,24.93
2022-10-01T00:12:23.244Z,24.96
2022-10-01T00:14:45.777Z,24.97
2022-10-01T00:18:01.867Z,24.96
2022-10-01T00:21:13.343Z,24.90
2022-10-01T00:24:08.146Z,24.89
2022-10-01T00:26:48.656Z,24.84
2022-10-01T00:30:17.621Z,24.82
2022-10-01T00:33:28.782Z,24.79
2022-10-01T00:36:46.776Z,24.75
2022-10-01T00:39:28.570Z,24.70
2022-10-01T00:41:46.421Z,24.65
2022-10-01T00:44:55.056Z,24.63
2022-10-01T00:48:25.739Z,24.56
2022-10-01T00:51:44.562Z,24.49
2022-10-01T00:54:54.792Z,24.42
2022-10-01T00:58:12.128Z,24.36
2022-10-01T01:01:41.027Z,24.34
2022-10-01T01:05:00.671Z,24.30
2022-10-01T01:08:29.481Z,24.20
2022-10-01T01:11:56.678Z,24.13
2022-10-01T01:15:44.441Z,24.07
2022-10-01T01:19:29.108Z,24.02
2022-10-01T01:22:38.591Z,23.97
2022-10-01T01:26:02.955Z,23.95
2022-10-01T01:29:30.094Z,23.90
2022-10-01T01:33:01.857Z,23.82
2022-10-01T01:36:13.175Z,23.71
2022-10-01T01:39:40.546Z,23.64
2022-10-01T01:43:08.103Z,23.55
2022-10-01T01:46:26.028Z,23.47
2022-10-01T01:49:55.175Z,23.39
2022-10-01T01:53:06.608Z,23.30
2022-10-01T02:00:09.302Z,23.07
2022-10-01T02:03:04.508Z,22.97
2022-10-01T02:06:21.756Z,22.89
2022-10-01T02:09:40.246Z,22.81
2022-10-01T02:13:06.640Z,22.72
2022-10-01T02:28:26.810Z,22.36
2022-10-01T02:35:08.175Z,22.19
2022-10-01T02:38:17.092Z,22.07
2022-10-01T02:40:43.678Z,21.94
2022-10-01T02:44:07.724Z,21.90
2022-10-01T02:47:17.412Z,21.84
2022-10-01T02:50:14.820Z,21.77
2022-10-01T02:57:34.998Z,21.60
2022-10-01T03:00:44.421Z,21.55
2022-10-01T03:03:55.234Z,21.45
2022-10-01T03:06:03.643Z,21.44
2022-10-01T03:09:12.000Z,21.42
2022-10-01T03:11:34.892Z,21.38
2022-10-01T03:14:01.356Z,21.35
2022-10-01T03:16:29.154Z,21.32
2022-10-01T03:18:34.543Z,21.30
2022-10-01T03:20:49.902Z,21.27
2022-10-01T03:22:55.610Z,21.24
2022-10-01T03:25:01.129Z,21.20
2022-10-01T03:27:09.219Z,21.17
2022-10-01T03:29:15.077Z,21.09
2022-10-01T03:31:20.251Z,21.05
2022-10-01T03:33:28.679Z,21.00
2022-10-01T03:35:37.833Z,20.96
2022-10-01T03:37:43.169Z,20.92
2022-10-01T03:39:51.492Z,20.86
2022-10-01T03:41:59.381Z,20.82
2022-10-01T04:08:11.593Z,20.25
2022-10-01T04:11:37.839Z,20.21
2022-10-01T04:14:45.896Z,20.14
2022-10-01T04:17:12.515Z,20.07
2022-10-01T04:19:35.878Z,20.02
2022-10-01T04:21:40.799Z,19.97
2022-10-01T04:23:50.706Z,19.92
2022-10-01T04:26:09.245Z,19.86
2022-10-01T04:28:35.588Z,19.80
2022-10-01T04:31:24.052Z,19.73
2022-10-01T04:33:52.362Z,19.68
2022-10-01T04:36:48.035Z,19.60
2022-10-01T04:40:03.211Z,19.56
2022-10-01T04:42:13.869Z,19.51
2022-10-01T04:44:43.435Z,19.47
2022-10-01T04:46:51.914Z,19.43
2022-10-01T04:49:00.249Z,19.39
2022-10-01T04:51:05.788Z,19.36
2022-10-01T04:53:10.934Z,19.33
2022-10-01T04:55:17.022Z,19.29
2022-10-01T04:57:42.299Z,19.27
2022-10-01T04:59:53.777Z,19.24
2022-10-01T05:02:33.413Z,19.19
2022-10-01T05:04:56.551Z,19.16
2022-10-01T05:07:28.163Z,19.13
2022-10-01T05:10:00.138Z,19.10
2022-10-01T05:12:44.819Z,19.07
2022-10-01T05:15:10.176Z,19.02
2022-10-01T05:17:18.897Z,18.99
2022-10-01T05:19:34.900Z,18.96
2022-10-01T05:21:39.821Z,18.92
2022-10-01T05:23:48.099Z,18.88
2022-10-01T05:25:52.894Z,18.82
2022-10-01T05:28:06.169Z,18.75
2022-10-01T05:30:34.476Z,18.68
2022-10-01T05:33:03.253Z,18.59
2022-10-01T05:35:18.062Z,18.51
2022-10-01T05:37:24.729Z,18.44
2022-10-01T05:39:30.819Z,18.39
2022-10-01T05:41:36.665Z,18.35
2022-10-01T05:43:45.708Z,18.32
2022-10-01T05:46:51.173Z,18.28
2022-10-01T05:49:23.981Z,18.24
2022-10-01T05:52:17.591Z,18.17
2022-10-01T05:54:59.080Z,18.11
2022-10-01T05:57:19.397Z,18.11
2022-10-01T06:00:00.930Z,18.07
2022-10-01T06:02:19.927Z,18.01
2022-10-01T06:05:06.424Z,17.97
2022-10-01T06:07:52.330Z,17.92
2022-10-01T06:10:03.059Z,17.86
2022-10-01T06:12:20.173Z,17.82
2022-10-01T06:14:28.104Z,17.76
2022-10-01T06:16:42.661Z,17.72
2022-10-01T06:19:09.686Z,17.69
2022-10-01T06:21:42.343Z,17.64
2022-10-01T06:24:43.141Z,17.62
2022-10-01T06:26:54.656Z,17.57
2022-10-01T06:29:03.951Z,17.54
2022-10-01T06:31:08.749Z,17.50
2022-10-01T06:33:18.351Z,17.47
2022-10-01T06:35:24.113Z,17.42
2022-10-01T06:37:32.702Z,17.37
2022-10-01T06:39:49.443Z,17.31
2022-10-01T06:42:07.372Z,17.27
2022-10-01T06:44:37.516Z,17.23
2022-10-01T06:47:07.515Z,17.17
2022-10-01T06:50:00.173Z,17.12
2022-10-01T06:53:02.926Z,17.07
2022-10-01T06:55:40.764Z,17.03
2022-10-01T06:58:20.287Z,16.98
2022-10-01T07:00:42.068Z,16.95
2022-10-01T07:02:50.781Z,16.92
2022-10-01T07:04:59.519Z,16.88
2022-10-01T07:07:04.472Z,16.86
2022-10-01T07:09:09.963Z,16.84
2022-10-01T07:11:24.467Z,16.80
2022-10-01T07:13:29.753Z,16.79
2022-10-01T07:15:37.888Z,16.76
2022-10-01T07:18:00.197Z,16.76
2022-10-01T07:20:06.259Z,16.74
2022-10-01T07:22:11.334Z,16.73
2022-10-01T07:24:16.878Z,16.71
2022-10-01T07:26:21.813Z,16.69
2022-10-01T07:28:28.719Z,16.66
2022-10-01T07:30:35.504Z,16.62
2022-10-01T07:32:43.978Z,16.60
2022-10-01T07:35:09.405Z,16.57
2022-10-01T07:37:15.218Z,16.53
2022-10-01T07:39:40.965Z,16.48
2022-10-01T07:41:46.117Z,16.46
2022-10-01T07:44:03.831Z,16.44
2022-10-01T07:46:08.927Z,16.42
2022-10-01T07:48:17.961Z,16.38
2022-10-01T07:50:22.822Z,16.37
2022-10-01T07:52:28.056Z,16.32
2022-10-01T07:54:33.747Z,16.30
2022-10-01T07:56:39.114Z,16.27
2022-10-01T07:58:47.138Z,16.23
2022-10-01T08:01:15.089Z,16.20
2022-10-01T08:03:44.825Z,16.16
2022-10-01T08:05:54.676Z,16.13
2022-10-01T08:08:43.674Z,16.10
2022-10-01T08:11:04.254Z,16.08
2022-10-01T08:13:17.230Z,16.05
2022-10-01T08:15:22.444Z,16.06
2022-10-01T08:18:02.002Z,16.04
2022-10-01T08:20:32.042Z,15.98
2022-10-01T08:23:02.451Z,15.98
2022-10-01T08:25:30.369Z,15.95
2022-10-01T08:27:35.570Z,15.94
2022-10-01T08:29:43.756Z,15.91
2022-10-01T08:31:49.552Z,15.90
2022-10-01T08:33:54.533Z,15.88
2022-10-01T08:36:22.586Z,15.85
2022-10-01T08:38:28.135Z,15.85
2022-10-01T08:40:41.584Z,15.84
2022-10-01T08:43:06.737Z,15.83
2022-10-01T08:45:23.100Z,15.81
2022-10-01T08:47:35.693Z,15.78
2022-10-01T08:49:59.843Z,15.76
2022-10-01T08:52:36.108Z,15.73
2022-10-01T08:54:46.900Z,15.71
2022-10-01T08:56:54.580Z,15.68
2022-10-01T08:59:04.034Z,15.67
2022-10-01T09:01:11.850Z,15.66
2022-10-01T09:03:20.126Z,15.64
2022-10-01T09:05:48.931Z,15.63
2022-10-01T09:08:15.640Z,15.61
2022-10-01T09:10:28.072Z,15.60
2022-10-01T09:13:11.801Z,15.58
2022-10-01T09:15:38.419Z,15.56
2022-10-01T09:18:22.810Z,15.53
2022-10-01T09:20:36.726Z,15.50
2022-10-01T09:22:58.520Z,15.48
2022-10-01T09:25:25.765Z,15.46
2022-10-01T09:27:32.817Z,15.44
2022-10-01T09:29:44.862Z,15.40
2022-10-01T09:31:51.868Z,15.39
2022-10-01T09:34:21.386Z,15.36
2022-10-01T09:36:38.003Z,15.32
2022-10-01T09:39:00.611Z,15.30
2022-10-01T09:41:11.112Z,15.27
2022-10-01T09:43:22.337Z,15.26
2022-10-01T09:45:51.405Z,15.24
2022-10-01T09:48:05.814Z,15.21
2022-10-01T09:50:23.065Z,15.20
2022-10-01T09:52:43.186Z,15.19
2022-10-01T09:54:59.110Z,15.19
2022-10-01T09:57:15.661Z,15.16
2022-10-01T09:59:45.103Z,15.15
2022-10-01T10:02:15.683Z,15.13
2022-10-01T10:04:24.745Z,15.12
2022-10-01T10:07:29.891Z,15.12
2022-10-01T10:10:30.669Z,15.11
2022-10-01T10:12:47.569Z,15.07
2022-10-01T10:15:02.844Z,15.06
2022-10-01T10:17:22.692Z,15.04
2022-10-01T10:19:29.785Z,15.02
2022-10-01T10:21:35.805Z,15.00
2022-10-01T10:23:59.719Z,14.98
2022-10-01T10:26:08.099Z,14.95
2022-10-01T10:28:23.960Z,14.91
2022-10-01T10:30:30.453Z,14.88
2022-10-01T10:32:36.451Z,14.84
2022-10-01T10:34:47.360Z,14.80
2022-10-01T10:37:00.014Z,14.77
2022-10-01T10:39:10.135Z,14.73
2022-10-01T10:41:19.786Z,14.70
2022-10-01T10:43:32.506Z,14.67
2022-10-01T10:45:40.208Z,14.63
2022-10-01T10:47:51.850Z,14.61
2022-10-01T10:50:05.208Z,14.59
2022-10-01T10:52:30.242Z,14.57
2022-10-01T10:54:41.890Z,14.53
2022-10-01T10:57:29.607Z,14.48
2022-10-01T10:59:35.717Z,14.46
2022-10-01T11:02:02.192Z,14.43
2022-10-01T11:04:27.615Z,14.41
2022-10-01T11:06:33.234Z,14.39
2022-10-01T11:08:40.307Z,14.37
2022-10-01T11:11:07.926Z,14.37
2022-10-01T11:13:44.049Z,14.37
2022-10-01T11:16:36.176Z,14.36
2022-10-01T11:19:18.904Z,14.36
2022-10-01T11:21:32.334Z,14.35
2022-10-01T11:23:56.740Z,14.33
2022-10-01T11:26:07.749Z,14.31
2022-10-01T11:28:32.287Z,14.29
2022-10-01T11:30:43.154Z,14.29
2022-10-01T11:32:56.349Z,14.27
2022-10-01T11:35:13.591Z,14.25
2022-10-01T11:37:36.520Z,14.24
2022-10-01T11:39:45.265Z,14.23
2022-10-01T11:41:56.062Z,14.23
2022-10-01T11:44:08.227Z,14.23
2022-10-01T11:46:27.537Z,14.21
2022-10-01T11:48:42.353Z,14.20
2022-10-01T11:50:51.879Z,14.18
2022-10-01T11:53:17.532Z,14.18
2022-10-01T11:55:47.007Z,14.16
2022-10-01T11:58:21.928Z,14.14
2022-10-01T12:00:40.965Z,14.13
2022-10-01T12:03:06.030Z,14.10
2022-10-01T12:05:33.662Z,14.09
2022-10-01T12:08:09.680Z,14.07
2022-10-01T12:10:39.651Z,14.07
2022-10-01T12:13:28.519Z,14.05
2022-10-01T12:15:55.946Z,14.03
2022-10-01T12:18:14.496Z,14.01
2022-10-01T12:20:28.639Z,14.00
2022-10-01T12:22:40.330Z,14.00
2022-10-01T12:24:46.179Z,13.98
2022-10-01T12:27:14.476Z,13.96
2022-10-01T12:29:27.613Z,13.94
2022-10-01T12:31:52.807Z,13.94
2022-10-01T12:34:22.826Z,13.93
2022-10-01T12:36:50.320Z,13.92
2022-10-01T12:39:08.949Z,13.89
2022-10-01T12:41:38.633Z,13.86
2022-10-01T12:44:11.827Z,13.84
2022-10-01T12:46:29.004Z,13.81
2022-10-01T12:48:48.931Z,13.78
2022-10-01T12:51:15.306Z,13.77
2022-10-01T12:53:46.395Z,13.73
2022-10-01T12:56:05.161Z,13.70
2022-10-01T12:59:06.802Z,13.67
2022-10-01T13:01:52.157Z,13.65
2022-10-01T13:04:08.962Z,13.64
2022-10-01T13:07:13.172Z,13.61
2022-10-01T13:09:34.694Z,13.62
2022-10-01T13:11:59.566Z,13.59
2022-10-01T13:14:08.146Z,13.58
2022-10-01T13:16:30.532Z,13.57
2022-10-01T13:18:39.731Z,13.56
2022-10-01T13:20:54.758Z,13.55
2022-10-01T13:23:13.289Z,13.53
2022-10-01T13:25:49.404Z,13.52
2022-10-01T13:28:10.882Z,13.50
2022-10-01T13:30:18.910Z,13.48
2022-10-01T13:32:33.809Z,13.47
2022-10-01T13:34:42.098Z,13.44
2022-10-01T13:36:57.445Z,13.44
2022-10-01T13:39:02.488Z,13.44
2022-10-01T13:41:23.493Z,13.43
2022-10-01T13:43:31.560Z,13.41
2022-10-01T13:45:39.720Z,13.40
2022-10-01T13:47:44.724Z,13.39
2022-10-01T13:50:04.796Z,13.39
2022-10-01T13:52:24.039Z,13.38
2022-10-01T13:54:40.228Z,13.37
2022-10-01T13:56:45.202Z,13.37
2022-10-01T13:58:53.503Z,13.37
2022-10-01T14:01:23.573Z,13.36
2022-10-01T14:03:35.115Z,13.37
2022-10-01T14:06:07.870Z,13.35
2022-10-01T14:08:50.558Z,13.37
2022-10-01T14:11:33.088Z,13.37
2022-10-01T14:14:02.245Z,13.36
2022-10-01T14:16:07.965Z,13.36
2022-10-01T14:18:18.437Z,13.36
2022-10-01T14:20:31.325Z,13.36
2022-10-01T14:22:41.864Z,13.35
2022-10-01T14:25:22.832Z,13.38
2022-10-01T14:28:00.613Z,13.46
2022-10-01T14:30:23.522Z,13.87
2022-10-01T14:32:38.528Z,14.32
2022-10-01T14:34:59.906Z,14.58
2022-10-01T14:37:08.719Z,14.69
2022-10-01T14:39:17.837Z,14.71
2022-10-01T14:41:27.339Z,14.71
2022-10-01T14:43:33.787Z,14.64
2022-10-01T14:45:38.948Z,14.58
2022-10-01T14:47:44.042Z,14.56
2022-10-01T14:49:50.289Z,14.79
2022-10-01T14:52:17.675Z,15.37
2022-10-01T14:54:23.350Z,16.18
2022-10-01T14:56:41.949Z,16.87
2022-10-01T14:58:53.268Z,17.57
2022-10-01T15:00:59.982Z,18.14
2022-10-01T15:03:18.541Z,18.65
2022-10-01T15:05:30.011Z,19.09
2022-10-01T15:07:37.308Z,19.46
2022-10-01T15:09:42.425Z,19.78
2022-10-01T15:11:51.704Z,20.11
2022-10-01T15:14:27.496Z,20.37
2022-10-01T15:16:36.862Z,20.60
2022-10-01T15:19:01.765Z,20.84
2022-10-01T15:21:08.122Z,21.02
2022-10-01T15:23:13.445Z,21.22
2022-10-01T15:25:25.356Z,21.40
2022-10-01T15:27:31.578Z,21.54
2022-10-01T15:29:39.270Z,21.67
2022-10-01T15:32:18.745Z,21.80
2022-10-01T15:34:56.421Z,22.01
2022-10-01T15:37:15.007Z,22.16
2022-10-01T15:39:48.520Z,22.24
2022-10-01T15:42:14.469Z,22.33
2022-10-01T15:44:58.325Z,22.37
2022-10-01T15:47:52.078Z,22.45
2022-10-01T15:50:36.994Z,22.53
2022-10-01T15:53:18.648Z,22.66
2022-10-01T15:55:40.070Z,22.70
2022-10-01T15:57:45.952Z,22.79
2022-10-01T16:00:09.313Z,22.93
2022-10-01T16:02:37.058Z,23.07
2022-10-01T16:04:42.924Z,23.22
2022-10-01T16:07:12.899Z,23.34
2022-10-01T16:10:21.875Z,23.48
2022-10-01T16:12:48.076Z,23.61
2022-10-01T16:15:18.818Z,23.79
2022-10-01T16:18:16.807Z,23.97
2022-10-01T16:21:39.193Z,24.11
2022-10-01T16:24:47.650Z,24.21
2022-10-01T16:27:52.730Z,24.29
2022-10-01T16:30:28.505Z,24.50
2022-10-01T16:33:16.474Z,24.77
2022-10-01T16:36:33.032Z,25.09
2022-10-01T16:39:31.948Z,25.36
2022-10-01T16:42:22.387Z,25.62
2022-10-01T16:45:08.865Z,25.80
2022-10-01T16:48:17.752Z,25.97
2022-10-01T16:51:13.442Z,26.19
2022-10-01T16:54:08.620Z,26.43
2022-10-01T16:57:26.030Z,26.82
2022-10-01T17:00:51.767Z,27.29
2022-10-01T17:03:58.980Z,27.65
2022-10-01T17:06:32.701Z,27.92
2022-10-01T17:09:32.146Z,28.19
2022-10-01T17:12:46.234Z,28.44
2022-10-01T17:16:14.638Z,28.67
2022-10-01T17:19:29.077Z,28.99
2022-10-01T17:22:39.825Z,29.30
2022-10-01T17:25:08.839Z,29.62
2022-10-01T17:27:23.402Z,29.84
2022-10-01T17:30:13.854Z,30.03
2022-10-01T17:33:09.825Z,30.30
2022-10-01T17:35:25.282Z,30.50
2022-10-01T17:38:32.454Z,30.59
2022-10-01T17:40:59.567Z,30.71
2022-10-01T17:43:12.994Z,30.70
2022-10-01T17:46:02.203Z,30.68
2022-10-01T17:49:21.781Z,30.70
2022-10-01T17:52:40.955Z,30.68
2022-10-01T17:55:35.962Z,30.75
2022-10-01T17:58:44.985Z,30.90
2022-10-01T18:02:36.432Z,30.82
2022-10-01T18:05:25.998Z,30.96
2022-10-01T18:08:54.756Z,30.97
2022-10-01T18:11:41.537Z,31.16
2022-10-01T18:14:53.023Z,31.38
2022-10-01T18:17:52.118Z,31.62
2022-10-01T18:21:08.689Z,31.70
2022-10-01T18:24:04.787Z,31.64
2022-10-01T18:27:19.135Z,31.60
2022-10-01T18:30:10.644Z,31.62
2022-10-01T18:33:25.584Z,31.56
2022-10-01T18:36:50.614Z,31.32
2022-10-01T18:39:37.101Z,31.46
2022-10-01T18:42:52.805Z,31.71
2022-10-01T18:46:03.829Z,31.86
2022-10-01T18:49:05.692Z,32.17
2022-10-01T18:52:42.938Z,32.34
2022-10-01T18:56:14.192Z,32.24
2022-10-01T18:59:51.129Z,32.28
2022-10-01T19:02:50.892Z,32.55
2022-10-01T19:05:35.656Z,32.66
2022-10-01T19:08:08.944Z,32.86
2022-10-01T19:11:32.788Z,33.01
2022-10-01T19:14:46.377Z,32.96
2022-10-01T19:18:00.387Z,32.97
2022-10-01T19:21:48.157Z,32.87
2022-10-01T19:24:41.137Z,32.69
2022-10-01T19:27:55.533Z,32.72
2022-10-01T19:30:49.324Z,32.87
2022-10-01T19:34:07.263Z,32.91
2022-10-01T19:37:18.277Z,32.55
2022-10-01T19:40:27.191Z,32.56
2022-10-01T19:43:32.525Z,32.69
2022-10-01T19:47:03.102Z,32.67
2022-10-01T19:49:45.355Z,32.73
2022-10-01T19:53:13.875Z,32.82
2022-10-01T19:56:13.855Z,32.96
2022-10-01T19:59:19.514Z,33.11
2022-10-01T20:02:21.115Z,33.13
2022-10-01T20:05:00.208Z,33.11
2022-10-01T20:07:55.119Z,32.89
2022-10-01T20:11:19.097Z,32.88
2022-10-01T20:14:08.573Z,33.09
2022-10-01T20:16:55.718Z,33.27
2022-10-01T20:20:26.812Z,33.09
2022-10-01T20:24:00.433Z,32.82
2022-10-01T20:27:29.136Z,32.63
2022-10-01T20:31:03.692Z,32.43
2022-10-01T20:34:57.029Z,32.40
2022-10-01T20:38:00.858Z,32.66
2022-10-01T20:40:56.290Z,32.76
2022-10-01T20:44:28.843Z,32.84
2022-10-01T20:48:02.657Z,32.85
2022-10-01T20:50:48.818Z,33.00
2022-10-01T20:53:54.528Z,32.99
2022-10-01T20:57:10.138Z,33.03
2022-10-01T21:00:39.926Z,33.08
2022-10-01T21:03:46.493Z,32.92
2022-10-01T21:07:25.049Z,32.81
2022-10-01T21:10:39.399Z,32.83
2022-10-01T21:13:53.297Z,32.83
2022-10-01T21:17:06.022Z,32.81
2022-10-01T21:20:16.923Z,32.61
2022-10-01T21:23:23.294Z,32.59
2022-10-01T21:26:39.977Z,32.64
2022-10-01T21:29:40.524Z,32.64
2022-10-01T21:32:45.025Z,32.53
2022-10-01T21:35:55.092Z,32.44
2022-10-01T21:39:16.842Z,32.27
2022-10-01T21:42:52.046Z,32.29
2022-10-01T21:46:21.191Z,32.34
2022-10-01T21:49:36.223Z,32.30
2022-10-01T21:53:37.803Z,32.36
2022-10-01T21:56:29.164Z,32.47
2022-10-01T22:00:09.480Z,32.41
2022-10-01T22:03:36.876Z,32.29
2022-10-01T22:06:40.174Z,32.17
2022-10-01T22:10:15.252Z,32.12
2022-10-01T22:13:31.278Z,32.04
2022-10-01T22:16:46.641Z,32.14
2022-10-01T22:19:40.693Z,32.15
2022-10-01T22:22:52.359Z,32.18
2022-10-01T22:26:03.017Z,32.16
2022-10-01T22:29:22.702Z,32.13
2022-10-01T22:32:40.910Z,32.10
2022-10-01T22:35:19.671Z,32.20
2022-10-01T22:37:40.579Z,32.24
2022-10-01T22:40:49.667Z,32.25
2022-10-01T22:44:09.260Z,32.28
2022-10-01T22:47:32.337Z,32.22
2022-10-01T22:50:40.152Z,32.17
2022-10-01T22:54:03.327Z,32.05
2022-10-01T22:56:58.970Z,31.96
2022-10-01T23:00:37.541Z,31.92
2022-10-01T23:03:32.699Z,31.81
2022-10-01T23:06:36.597Z,31.68
2022-10-01T23:09:47.658Z,31.51
2022-10-01T23:13:12.942Z,31.39
2022-10-01T23:16:17.054Z,31.29
2022-10-01T23:19:52.336Z,31.27
2022-10-01T23:23:00.361Z,31.24
2022-10-01T23:25:51.131Z,31.23
2022-10-01T23:28:37.126Z,31.15
2022-10-01T23:31:22.783Z,31.11
2022-10-01T23:34:46.615Z,31.03
2022-10-01T23:38:04.535Z,30.88
2022-10-01T23:41:22.282Z,30.85
2022-10-01T23:44:29.501Z,30.76
2022-10-01T23:47:25.066Z,30.71
2022-10-01T23:50:36.334Z,30.64
2022-10-01T23:53:45.310Z,30.52
2022-10-01T23:57:10.002Z,30.45
